createdAt,value
2022-11-01T00:02:54.267Z,10.53
2022-11-01T00:08:00.262Z,8.67
2022-11-01T00:13:06.330Z,8.20
2022-11-01T00:18:11.850Z,9.93
2022-11-01T00:23:21.020Z,9.20
2022-11-01T00:28:28.282Z,9.30
2022-11-01T00:33:33.944Z,9.00
2022-11-01T00:38:41.283Z,8.07
2022-11-01T00:43:47.066Z,9.23
2022-11-01T00:48:56.497Z,7.30
2022-11-01T00:54:02.127Z,8.10
2022-11-01T00:59:07.825Z,6.90
2022-11-01T01:04:15.057Z,6.30
2022-11-01T01:09:21.467Z,5.10
2022-11-01T01:14:32.255Z,4.87
2022-11-01T01:19:34.935Z,5.17
2022-11-01T01:24:41.921Z,5.50
2022-11-01T01:29:47.407Z,5.53
2022-11-01T01:34:53.223Z,4.87
2022-11-01T01:39:59.698Z,4.23
2022-11-01T01:45:33.867Z,3.70
2022-11-01T01:50:43.553Z,5.37
2022-11-01T01:56:06.749Z,4.30
2022-11-01T02:01:13.137Z,4.53
2022-11-01T02:06:21.645Z,4.23
2022-11-01T02:11:27.719Z,4.63
2022-11-01T02:16:38.594Z,4.33
2022-11-01T02:21:46.968Z,5.17
2022-11-01T02:27:09.804Z,4.87
2022-11-01T02:32:45.078Z,5.77
2022-11-01T02:37:56.369Z,5.47
2022-11-01T02:43:05.015Z,4.30
2022-11-01T02:48:11.062Z,5.20
2022-11-01T02:53:16.500Z,4.67
2022-11-01T02:58:27.631Z,4.07
2022-11-01T03:03:35.301Z,3.90
2022-11-01T03:08:43.763Z,4.83
2022-11-01T03:14:04.274Z,4.17
2022-11-01T03:19:12.728Z,4.07
2022-11-01T03:24:29.976Z,5.17
2022-11-01T03:29:38.066Z,4.47
2022-11-01T03:34:45.893Z,5.13
2022-11-01T03:39:53.996Z,4.60
2022-11-01T03:45:05.969Z,3.87
2022-11-01T03:50:20.466Z,4.53
2022-11-01T03:55:26.915Z,4.20
2022-11-01T04:00:45.245Z,4.50
2022-11-01T04:05:50.720Z,4.70
2022-11-01T04:10:56.158Z,5.00
2022-11-01T04:16:20.280Z,6.50
2022-11-01T04:21:27.554Z,5.07
2022-11-01T04:26:33.053Z,5.77
2022-11-01T04:31:38.676Z,6.07
2022-11-01T04:36:44.289Z,5.30
2022-11-01T04:41:49.810Z,6.33
2022-11-01T04:46:55.295Z,7.40
2022-11-01T04:52:01.637Z,5.67
2022-11-01T04:57:10.374Z,6.63
2022-11-01T05:02:20.220Z,5.63
2022-11-01T05:07:31.334Z,6.17
2022-11-01T05:18:47.160Z,6.63
2022-11-01T05:23:58.559Z,5.40
2022-11-01T05:29:08.733Z,5.40
2022-11-01T05:34:12.659Z,4.07
2022-11-01T05:39:21.090Z,5.60
2022-11-01T05:44:26.499Z,5.53
2022-11-01T05:49:31.885Z,4.67
2022-11-01T05:54:37.093Z,5.10
2022-11-01T05:59:43.795Z,5.07
2022-11-01T06:04:48.985Z,5.07
2022-11-01T06:09:54.347Z,5.70
2022-11-01T06:14:59.842Z,5.90
2022-11-01T06:20:06.249Z,5.27
2022-11-01T06:25:13.222Z,5.20
2022-11-01T06:30:23.878Z,7.03
2022-11-01T06:35:32.340Z,7.37
2022-11-01T06:40:42.149Z,6.20
2022-11-01T06:45:51.875Z,4.90
2022-11-01T06:51:00.639Z,6.57
2022-11-01T06:56:06.854Z,6.17
2022-11-01T07:01:13.760Z,4.27
2022-11-01T07:06:20.388Z,6.17
2022-11-01T07:11:31.019Z,5.73
2022-11-01T07:16:33.886Z,5.57
2022-11-01T07:21:39.440Z,5.13
2022-11-01T07:26:44.914Z,5.13
2022-11-01T07:31:50.493Z,5.37
2022-11-01T07:36:57.913Z,4.90
2022-11-01T07:47:55.674Z,5.67
2022-11-01T07:53:26.684Z,5.33
2022-11-01T07:58:35.432Z,4.83
2022-11-01T08:03:49.274Z,4.63
2022-11-01T08:09:05.305Z,4.70
2022-11-01T08:14:12.156Z,6.23
2022-11-01T08:19:18.188Z,5.03
2022-11-01T08:24:23.620Z,6.40
2022-11-01T08:29:29.005Z,6.50
2022-11-01T08:34:34.506Z,5.33
2022-11-01T08:39:48.406Z,6.27
2022-11-01T08:44:55.188Z,5.43
2022-11-01T08:50:00.963Z,7.13
2022-11-01T08:55:07.071Z,5.83
2022-11-01T09:00:16.383Z,5.40
2022-11-01T09:05:22.995Z,6.97
2022-11-01T09:10:30.565Z,6.20
2022-11-01T09:15:42.965Z,4.97
2022-11-01T09:21:08.432Z,6.27
2022-11-01T09:33:23.824Z,6.80
2022-11-01T09:38:31.482Z,7.50
2022-11-01T09:43:45.382Z,7.30
2022-11-01T09:49:02.325Z,9.97
2022-11-01T09:55:13.502Z,8.13
2022-11-01T10:00:46.752Z,7.07
2022-11-01T10:06:05.761Z,7.80
2022-11-01T10:17:15.355Z,8.10
2022-11-01T10:22:37.090Z,8.10
2022-11-01T10:28:05.949Z,6.03
2022-11-01T10:33:46.677Z,7.33
2022-11-01T10:40:01.426Z,6.63
2022-11-01T10:44:56.801Z,7.17
2022-11-01T11:08:13.760Z,6.60
2022-11-01T11:13:31.635Z,6.53
2022-11-01T11:24:46.452Z,8.27
2022-11-01T11:30:03.873Z,7.43
2022-11-01T11:40:59.196Z,8.23
2022-11-01T11:46:12.856Z,8.63
2022-11-01T11:57:15.610Z,10.27
2022-11-01T12:02:24.620Z,9.60
2022-11-01T12:07:38.928Z,11.10
2022-11-01T12:12:49.883Z,10.27
2022-11-01T12:18:03.266Z,9.97
2022-11-01T12:23:24.858Z,9.40
2022-11-01T12:28:42.771Z,9.73
2022-11-01T12:33:53.937Z,11.47
2022-11-01T12:44:45.060Z,8.70
2022-11-01T12:50:45.803Z,10.23
2022-11-01T13:02:05.391Z,11.63
2022-11-01T13:07:27.971Z,13.10
2022-11-01T13:12:57.276Z,12.30
2022-11-01T13:24:04.040Z,12.57
2022-11-01T13:29:31.686Z,13.77
2022-11-01T13:34:56.764Z,11.17
2022-11-01T13:40:05.261Z,13.10
2022-11-01T13:45:34.971Z,11.77
2022-11-01T13:57:13.501Z,13.73
2022-11-01T14:09:26.389Z,15.13
2022-11-01T14:15:31.119Z,14.70
2022-11-01T14:27:12.689Z,15.87
2022-11-01T14:32:45.980Z,14.97
2022-11-01T14:38:37.716Z,16.23
2022-11-01T14:43:56.946Z,16.23
2022-11-01T14:49:38.004Z,17.30
2022-11-01T14:55:17.865Z,18.43
2022-11-01T15:00:48.029Z,15.67
2022-11-01T15:11:42.503Z,14.23
2022-11-01T15:17:24.776Z,13.93
2022-11-01T15:28:12.611Z,14.20
2022-11-01T15:33:39.931Z,15.40
2022-11-01T16:12:38.578Z,16.27
2022-11-01T16:17:54.410Z,16.80
2022-11-01T16:23:02.003Z,18.43
2022-11-01T16:28:13.257Z,17.33
2022-11-01T16:33:35.161Z,16.87
2022-11-01T16:38:43.691Z,17.50
2022-11-01T16:43:56.957Z,41.03
2022-11-01T16:49:05.805Z,55.87
2022-11-01T16:54:12.838Z,47.57
2022-11-01T16:59:38.565Z,21.53
2022-11-01T17:04:45.253Z,25.40
2022-11-01T17:09:50.879Z,34.97
2022-11-01T17:15:11.390Z,18.90
2022-11-01T17:20:25.878Z,21.80
2022-11-01T17:26:01.680Z,20.73
2022-11-01T17:32:05.858Z,20.97
2022-11-01T17:48:53.807Z,21.30
2022-11-01T17:54:27.874Z,20.67
2022-11-01T18:11:43.505Z,21.60
2022-11-01T18:17:07.681Z,21.80
2022-11-01T18:40:26.092Z,19.17
2022-11-01T18:57:27.009Z,19.40
2022-11-01T19:02:59.480Z,20.40
2022-11-01T19:08:29.696Z,20.60
2022-11-01T19:13:49.077Z,18.77
2022-11-01T19:19:02.935Z,22.67
2022-11-01T19:41:46.661Z,19.67
2022-11-01T19:47:25.299Z,19.73
2022-11-01T19:52:46.847Z,19.97
